createdAt,value
2023-01-03T00:02:20.549Z,0.50
2023-01-03T00:04:49.952Z,0.40
2023-01-03T00:07:33.951Z,0.50
2023-01-03T00:10:06.339Z,0.63
2023-01-03T00:12:35.016Z,0.70
2023-01-03T00:15:05.798Z,0.50
2023-01-03T00:17:34.228Z,0.67
2023-01-03T00:20:02.599Z,0.40
2023-01-03T00:22:33.313Z,0.53
2023-01-03T00:25:01.951Z,0.60
2023-01-03T00:27:31.811Z,0.67
2023-01-03T00:30:00.176Z,0.60
2023-01-03T00:32:28.437Z,0.37
2023-01-03T00:35:00.169Z,0.50
2023-01-03T00:37:33.135Z,0.53
2023-01-03T00:40:01.523Z,0.63
2023-01-03T00:42:51.708Z,0.60
2023-01-03T00:45:21.138Z,0.60
2023-01-03T00:47:50.723Z,0.70
2023-01-03T00:50:19.091Z,0.63
2023-01-03T00:52:47.270Z,0.57
2023-01-03T00:55:15.818Z,0.77
2023-01-03T00:57:45.440Z,0.73
2023-01-03T01:00:14.751Z,0.60
2023-01-03T01:02:43.223Z,0.70
2023-01-03T01:05:11.717Z,0.60
2023-01-03T01:07:39.870Z,0.50
2023-01-03T01:10:08.724Z,0.83
2023-01-03T01:12:37.422Z,0.60
2023-01-03T01:15:08.295Z,0.80
2023-01-03T01:17:36.936Z,0.50
2023-01-03T01:20:06.102Z,0.60
2023-01-03T01:22:35.173Z,0.60
2023-01-03T01:25:04.091Z,0.50
2023-01-03T01:27:32.452Z,0.80
2023-01-03T01:30:00.811Z,0.80
2023-01-03T01:32:31.872Z,0.80
2023-01-03T01:34:59.993Z,0.67
2023-01-03T01:37:28.441Z,0.70
2023-01-03T01:39:56.604Z,0.83
2023-01-03T01:42:50.636Z,0.87
2023-01-03T01:45:18.971Z,0.90
2023-01-03T01:47:54.251Z,0.70
2023-01-03T01:50:26.508Z,0.87
2023-01-03T01:52:58.632Z,0.90
2023-01-03T01:55:29.121Z,0.80
2023-01-03T01:57:58.059Z,1.10
2023-01-03T02:00:26.270Z,0.87
2023-01-03T02:02:57.364Z,0.90
2023-01-03T02:05:27.322Z,1.20
2023-01-03T02:07:56.640Z,2.10
2023-01-03T02:10:36.659Z,3.33
2023-01-03T02:13:11.591Z,5.43
2023-01-03T02:15:53.100Z,7.40
2023-01-03T02:18:36.743Z,8.50
2023-01-03T02:21:35.138Z,7.70
2023-01-03T02:24:32.392Z,8.43
2023-01-03T02:27:08.492Z,7.43
2023-01-03T02:30:13.265Z,6.10
2023-01-03T02:32:48.637Z,6.37
2023-01-03T02:35:21.117Z,5.43
2023-01-03T02:37:58.013Z,3.93
2023-01-03T02:40:32.817Z,3.60
2023-01-03T02:43:07.572Z,2.30
2023-01-03T02:45:48.829Z,2.63
2023-01-03T02:48:27.221Z,2.43
2023-01-03T02:50:58.558Z,1.87
2023-01-03T02:53:30.628Z,1.83
2023-01-03T02:56:02.720Z,1.63
2023-01-03T02:58:35.270Z,1.40
2023-01-03T03:01:06.674Z,1.40
2023-01-03T03:03:38.686Z,1.53
2023-01-03T03:06:12.496Z,1.43
2023-01-03T03:08:40.890Z,1.53
2023-01-03T03:11:26.945Z,1.57
2023-01-03T03:14:01.369Z,1.47
2023-01-03T03:16:49.174Z,1.53
2023-01-03T03:19:45.561Z,1.50
2023-01-03T03:22:41.524Z,1.30
2023-01-03T03:25:13.847Z,1.20
2023-01-03T03:28:03.206Z,1.30
2023-01-03T03:30:34.230Z,1.27
2023-01-03T03:33:06.222Z,1.33
2023-01-03T03:35:51.595Z,1.50
2023-01-03T03:38:25.917Z,1.30
2023-01-03T03:41:20.765Z,1.90
2023-01-03T03:44:22.606Z,3.00
2023-01-03T03:46:56.537Z,2.90
2023-01-03T03:49:41.249Z,4.17
2023-01-03T03:52:15.648Z,4.60
2023-01-03T03:54:49.716Z,4.70
2023-01-03T03:57:23.339Z,4.93
2023-01-03T03:59:55.198Z,4.40
2023-01-03T04:02:25.459Z,3.57
2023-01-03T04:04:58.089Z,2.83
2023-01-03T04:07:27.966Z,2.90
2023-01-03T04:09:56.576Z,2.60
2023-01-03T04:12:24.657Z,2.33
2023-01-03T04:14:53.133Z,2.50
2023-01-03T04:17:21.706Z,2.40
2023-01-03T04:19:49.928Z,2.10
2023-01-03T04:22:18.268Z,2.30
2023-01-03T04:24:47.816Z,2.50
2023-01-03T04:27:16.312Z,2.10
2023-01-03T04:29:44.540Z,2.03
2023-01-03T04:32:13.030Z,1.80
2023-01-03T04:34:41.385Z,1.77
2023-01-03T04:37:10.086Z,1.90
2023-01-03T04:39:38.466Z,1.67
2023-01-03T04:42:28.882Z,1.80
2023-01-03T04:44:56.277Z,1.70
2023-01-03T04:47:24.637Z,1.70
2023-01-03T04:49:52.759Z,1.77
2023-01-03T04:52:20.986Z,1.60
2023-01-03T04:54:49.585Z,1.97
2023-01-03T04:57:19.435Z,1.60
2023-01-03T04:59:47.609Z,1.80
2023-01-03T05:02:16.253Z,1.80
2023-01-03T05:04:44.628Z,2.07
2023-01-03T05:07:13.354Z,2.10
2023-01-03T05:09:41.888Z,2.00
2023-01-03T05:12:12.438Z,1.90
2023-01-03T05:14:42.312Z,1.90
2023-01-03T05:17:10.914Z,1.80
2023-01-03T05:19:59.150Z,2.03
2023-01-03T05:22:45.630Z,1.40
2023-01-03T05:25:31.289Z,1.93
2023-01-03T05:27:59.934Z,2.00
2023-01-03T05:30:29.618Z,2.00
2023-01-03T05:32:59.224Z,1.90
2023-01-03T05:35:27.929Z,1.90
2023-01-03T05:37:56.920Z,2.17
2023-01-03T05:40:25.082Z,2.30
2023-01-03T05:42:53.308Z,1.93
2023-01-03T05:45:25.540Z,2.10
2023-01-03T05:47:58.093Z,2.27
2023-01-03T05:50:26.497Z,2.17
2023-01-03T05:52:54.952Z,2.30
2023-01-03T05:55:24.048Z,2.03
2023-01-03T05:57:53.160Z,2.10
2023-01-03T06:00:21.867Z,2.30
2023-01-03T06:02:50.306Z,2.07
2023-01-03T06:05:19.909Z,2.10
2023-01-03T06:07:48.528Z,2.13
2023-01-03T06:10:16.843Z,2.10
2023-01-03T06:12:45.094Z,2.00
2023-01-03T06:15:13.119Z,1.70
2023-01-03T06:17:57.725Z,1.70
2023-01-03T06:20:29.425Z,1.67
2023-01-03T06:22:58.056Z,1.50
2023-01-03T06:25:26.261Z,1.47
2023-01-03T06:27:54.565Z,1.70
2023-01-03T06:30:22.710Z,1.90
2023-01-03T06:32:51.185Z,1.80
2023-01-03T06:35:19.386Z,1.50
2023-01-03T06:37:49.352Z,2.10
2023-01-03T06:40:19.276Z,1.90
2023-01-03T06:42:47.679Z,1.90
2023-01-03T06:45:34.488Z,1.90
2023-01-03T06:48:23.853Z,1.50
2023-01-03T06:51:10.079Z,1.50
2023-01-03T06:53:42.204Z,1.40
2023-01-03T06:56:10.687Z,5.23
2023-01-03T06:58:38.952Z,2.50
2023-01-03T07:01:07.754Z,5.50
2023-01-03T07:03:36.096Z,2.20
2023-01-03T07:06:04.386Z,2.30
2023-01-03T07:08:33.128Z,2.20
2023-01-03T07:11:02.739Z,2.10
2023-01-03T07:13:48.652Z,2.53
2023-01-03T07:16:18.018Z,1.90
2023-01-03T07:18:52.854Z,1.67
2023-01-03T07:21:24.014Z,1.87
2023-01-03T07:23:53.896Z,1.80
2023-01-03T07:26:25.255Z,1.90
2023-01-03T07:28:54.176Z,2.20
2023-01-03T07:31:22.586Z,2.50
2023-01-03T07:33:53.024Z,2.10
2023-01-03T07:36:22.555Z,2.17
2023-01-03T07:38:50.662Z,2.10
2023-01-03T07:41:19.494Z,2.10
2023-01-03T07:43:49.613Z,1.90
2023-01-03T07:46:19.538Z,1.70
2023-01-03T07:48:49.658Z,1.90
2023-01-03T07:51:20.128Z,2.10
2023-01-03T07:53:51.267Z,2.10
2023-01-03T07:56:20.368Z,2.23
2023-01-03T07:58:51.917Z,2.17
2023-01-03T08:01:22.418Z,2.60
2023-01-03T08:03:50.973Z,2.07
2023-01-03T08:06:21.528Z,4.70
2023-01-03T08:09:10.743Z,3.20
2023-01-03T08:11:57.034Z,3.40
2023-01-03T08:14:27.488Z,4.20
2023-01-03T08:16:57.329Z,4.07
2023-01-03T08:19:26.288Z,4.23
2023-01-03T08:21:54.590Z,4.00
2023-01-03T08:24:22.755Z,4.00
2023-01-03T08:26:50.998Z,3.80
2023-01-03T08:29:19.201Z,4.27
2023-01-03T08:31:53.801Z,3.80
2023-01-03T08:34:29.306Z,3.67
2023-01-03T08:37:03.276Z,3.77
2023-01-03T08:39:36.631Z,3.80
2023-01-03T08:42:09.534Z,3.80
2023-01-03T08:44:39.364Z,4.30
2023-01-03T08:47:10.373Z,3.77
2023-01-03T08:49:39.968Z,3.83
2023-01-03T08:52:08.724Z,3.37
2023-01-03T08:54:36.839Z,4.30
2023-01-03T08:57:05.739Z,3.30
2023-01-03T08:59:33.922Z,3.37
2023-01-03T09:02:03.211Z,3.37
2023-01-03T09:04:32.969Z,3.40
2023-01-03T09:07:01.720Z,3.27
2023-01-03T09:09:29.882Z,3.20
2023-01-03T09:11:58.411Z,4.10
2023-01-03T09:14:27.133Z,4.03
2023-01-03T09:16:59.151Z,3.90
2023-01-03T09:19:27.368Z,3.80
2023-01-03T09:21:57.052Z,4.03
2023-01-03T09:24:25.412Z,3.73
2023-01-03T09:26:54.947Z,3.57
2023-01-03T09:29:23.419Z,3.43
2023-01-03T09:31:52.042Z,3.60
2023-01-03T09:34:20.799Z,3.30
2023-01-03T09:36:49.531Z,3.50
2023-01-03T09:39:19.281Z,3.00
2023-01-03T09:42:09.256Z,3.67
2023-01-03T09:44:39.061Z,4.73
2023-01-03T09:47:07.845Z,5.67
2023-01-03T09:49:57.440Z,5.50
2023-01-03T09:52:45.367Z,5.40
2023-01-03T09:55:43.907Z,5.10
2023-01-03T09:58:33.115Z,5.10
2023-01-03T10:01:32.143Z,4.47
2023-01-03T10:04:11.620Z,3.50
2023-01-03T10:06:50.395Z,3.07
2023-01-03T10:09:29.047Z,3.10
2023-01-03T10:12:09.661Z,2.40
2023-01-03T10:14:50.242Z,2.07
2023-01-03T10:17:27.641Z,2.40
2023-01-03T10:20:31.038Z,2.30
2023-01-03T10:23:02.854Z,2.13
2023-01-03T10:25:31.522Z,2.30
2023-01-03T10:28:12.748Z,2.37
2023-01-03T10:31:00.720Z,2.30
2023-01-03T10:33:35.202Z,5.43
2023-01-03T10:36:03.527Z,5.70
2023-01-03T10:38:35.270Z,5.53
2023-01-03T10:41:16.796Z,5.87
2023-01-03T10:43:56.646Z,7.27
2023-01-03T10:46:28.077Z,4.43
2023-01-03T10:51:56.579Z,5.43
2023-01-03T10:54:31.112Z,3.93
2023-01-03T10:56:59.542Z,3.37
2023-01-03T10:59:31.007Z,2.60
2023-01-03T11:02:02.484Z,5.13
2023-01-03T11:04:32.310Z,3.30
2023-01-03T11:07:05.219Z,2.50
2023-01-03T11:09:36.782Z,2.20
2023-01-03T11:12:12.691Z,2.67
2023-01-03T11:14:50.778Z,2.20
2023-01-03T11:17:20.993Z,2.80
2023-01-03T11:19:50.522Z,2.40
2023-01-03T11:22:33.805Z,1.20
2023-01-03T11:25:33.754Z,1.23
2023-01-03T11:28:17.703Z,1.13
2023-01-03T11:30:55.182Z,1.50
2023-01-03T11:33:39.762Z,1.60
2023-01-03T11:36:31.376Z,1.40
2023-01-03T11:39:26.807Z,1.83
2023-01-03T11:42:09.755Z,1.27
2023-01-03T11:45:02.905Z,1.00
2023-01-03T11:47:42.399Z,1.03
2023-01-03T11:50:27.662Z,1.10
2023-01-03T11:53:31.020Z,1.40
2023-01-03T11:56:19.631Z,1.20
2023-01-03T11:59:26.558Z,1.50
2023-01-03T12:02:29.028Z,1.40
2023-01-03T12:05:08.916Z,1.20
2023-01-03T12:07:52.426Z,1.10
2023-01-03T12:10:26.578Z,2.30
2023-01-03T12:13:16.944Z,2.57
2023-01-03T12:15:48.617Z,2.00
2023-01-03T12:18:24.983Z,2.37
2023-01-03T12:21:00.727Z,2.40
2023-01-03T12:23:42.946Z,1.53
2023-01-03T12:26:14.239Z,1.40
2023-01-03T12:28:51.619Z,1.03
2023-01-03T12:31:31.924Z,0.97
2023-01-03T12:34:17.007Z,0.70
2023-01-03T12:36:54.895Z,0.80
2023-01-03T12:39:38.298Z,0.80
2023-01-03T12:42:15.276Z,1.00
2023-01-03T12:44:46.330Z,0.90
2023-01-03T12:47:22.703Z,1.07
2023-01-03T12:49:57.094Z,0.90
2023-01-03T12:52:28.032Z,1.37
2023-01-03T12:55:02.208Z,1.43
2023-01-03T12:57:45.211Z,1.33
2023-01-03T13:00:23.797Z,0.93
2023-01-03T13:02:56.506Z,1.33
2023-01-03T13:05:31.917Z,1.50
2023-01-03T13:08:07.909Z,1.80
2023-01-03T13:10:41.948Z,4.03
2023-01-03T13:13:17.008Z,1.80
2023-01-03T13:15:46.546Z,2.17
2023-01-03T13:18:19.275Z,2.10
2023-01-03T13:20:50.438Z,2.17
2023-01-03T13:23:34.917Z,1.90
2023-01-03T13:26:24.284Z,1.80
2023-01-03T13:29:35.574Z,1.70
2023-01-03T13:32:05.739Z,1.30
2023-01-03T13:34:35.959Z,2.47
2023-01-03T13:37:19.261Z,2.73
2023-01-03T13:40:52.064Z,2.83
2023-01-03T13:43:19.362Z,3.40
2023-01-03T13:45:57.996Z,3.23
2023-01-03T13:48:34.105Z,4.10
2023-01-03T13:51:38.362Z,3.70
2023-01-03T13:54:35.615Z,5.23
2023-01-03T13:57:27.076Z,5.10
2023-01-03T13:59:58.389Z,4.43
2023-01-03T14:02:55.181Z,3.93
2023-01-03T14:05:50.993Z,4.30
2023-01-03T14:08:48.017Z,5.50
2023-01-03T14:11:37.307Z,4.27
2023-01-03T14:14:11.597Z,3.90
2023-01-03T14:16:46.572Z,5.23
2023-01-03T14:19:25.893Z,3.97
2023-01-03T14:22:14.221Z,3.50
2023-01-03T14:24:50.197Z,4.90
2023-01-03T14:27:22.109Z,4.07
2023-01-03T14:29:55.853Z,3.30
2023-01-03T14:32:32.055Z,3.57
2023-01-03T14:35:04.856Z,2.77
2023-01-03T14:37:34.933Z,3.00
2023-01-03T14:40:05.691Z,3.80
2023-01-03T14:42:33.994Z,2.43
2023-01-03T14:45:09.002Z,2.70
2023-01-03T14:47:40.384Z,2.33
2023-01-03T14:50:15.588Z,2.10
2023-01-03T14:52:45.760Z,2.73
2023-01-03T14:55:17.893Z,2.60
2023-01-03T14:57:48.785Z,2.87
2023-01-03T15:00:24.243Z,2.80
2023-01-03T15:02:58.985Z,2.70
2023-01-03T15:05:30.852Z,4.60
2023-01-03T15:08:10.161Z,4.47
2023-01-03T15:10:45.197Z,3.60
2023-01-03T15:13:20.967Z,3.93
2023-01-03T15:15:56.671Z,4.03
2023-01-03T15:18:27.777Z,6.23
2023-01-03T15:20:58.337Z,9.37
2023-01-03T15:23:41.216Z,10.10
2023-01-03T15:26:21.989Z,8.47
2023-01-03T15:28:53.782Z,8.70
2023-01-03T15:31:37.414Z,9.77
2023-01-03T15:34:15.419Z,7.83
2023-01-03T15:36:48.368Z,6.13
2023-01-03T15:39:19.788Z,6.30
2023-01-03T15:42:35.072Z,5.73
2023-01-03T15:44:55.084Z,4.83
2023-01-03T15:47:30.042Z,3.63
2023-01-03T15:50:01.277Z,4.17
2023-01-03T15:52:29.734Z,7.93
2023-01-03T15:54:58.323Z,7.97
2023-01-03T15:57:34.178Z,7.93
2023-01-03T16:00:05.567Z,7.57
2023-01-03T16:02:35.652Z,5.80
2023-01-03T16:05:08.143Z,7.97
2023-01-03T16:07:37.319Z,6.00
2023-01-03T16:10:06.374Z,5.67
2023-01-03T16:12:37.966Z,5.67
2023-01-03T16:15:08.671Z,4.80
2023-01-03T16:17:38.891Z,4.27
2023-01-03T16:20:08.028Z,6.27
2023-01-03T16:22:37.238Z,5.30
2023-01-03T16:25:07.623Z,5.57
2023-01-03T16:27:35.982Z,4.70
2023-01-03T16:30:04.535Z,5.90
2023-01-03T16:32:34.300Z,5.90
2023-01-03T16:35:13.342Z,5.40
2023-01-03T16:37:42.115Z,5.63
2023-01-03T16:40:15.870Z,7.73
2023-01-03T16:42:45.005Z,6.27
2023-01-03T16:45:13.786Z,6.13
2023-01-03T16:47:44.337Z,6.17
2023-01-03T16:50:18.385Z,6.67
2023-01-03T16:52:50.031Z,6.00
2023-01-03T16:55:24.971Z,5.30
2023-01-03T16:57:54.868Z,5.60
2023-01-03T17:00:25.662Z,4.93
2023-01-03T17:02:55.839Z,5.43
2023-01-03T17:05:26.957Z,4.93
2023-01-03T17:08:02.730Z,4.47
2023-01-03T17:10:34.385Z,4.63
2023-01-03T17:13:10.475Z,5.60
2023-01-03T17:15:41.469Z,4.73
2023-01-03T17:18:18.534Z,5.43
2023-01-03T17:20:52.644Z,6.93
2023-01-03T17:23:22.109Z,7.30
2023-01-03T17:25:50.686Z,6.63
2023-01-03T17:28:20.019Z,6.50
2023-01-03T17:30:51.268Z,7.00
2023-01-03T17:33:20.381Z,7.17
2023-01-03T17:35:50.548Z,7.53
2023-01-03T17:38:27.117Z,8.20
2023-01-03T17:40:58.098Z,6.70
2023-01-03T17:43:31.309Z,7.47
2023-01-03T17:46:23.402Z,7.50
2023-01-03T17:49:10.969Z,7.73
2023-01-03T17:51:40.792Z,8.10
2023-01-03T17:54:10.215Z,8.50
2023-01-03T17:56:40.617Z,7.87
2023-01-03T17:59:13.545Z,8.53
2023-01-03T18:01:43.294Z,8.60
2023-01-03T18:04:12.061Z,7.77
2023-01-03T18:06:42.167Z,8.07
2023-01-03T18:09:16.143Z,7.80
2023-01-03T18:11:44.715Z,6.90
2023-01-03T18:14:15.308Z,8.47
2023-01-03T18:16:47.656Z,10.87
2023-01-03T18:19:19.789Z,8.77
2023-01-03T18:21:50.279Z,8.87
2023-01-03T18:24:21.826Z,10.23
2023-01-03T18:26:53.017Z,13.77
2023-01-03T18:29:21.408Z,14.87
2023-01-03T18:31:49.951Z,14.63
2023-01-03T18:34:18.195Z,14.63
2023-01-03T18:36:51.739Z,12.90
2023-01-03T18:39:26.397Z,11.47
2023-01-03T18:42:16.142Z,12.10
2023-01-03T18:44:44.751Z,11.43
2023-01-03T18:47:14.831Z,13.87
2023-01-03T18:49:43.347Z,12.87
2023-01-03T18:52:24.315Z,13.10
2023-01-03T18:54:53.424Z,13.53
2023-01-03T18:57:23.195Z,13.30
2023-01-03T18:59:51.730Z,13.10
2023-01-03T19:02:21.933Z,14.07
2023-01-03T19:04:51.901Z,12.67
2023-01-03T19:07:29.375Z,12.40
2023-01-03T19:09:57.986Z,12.17
2023-01-03T19:12:27.752Z,12.33
2023-01-03T19:14:56.522Z,16.13
2023-01-03T19:17:25.396Z,15.97
2023-01-03T19:19:56.825Z,14.67
2023-01-03T19:22:30.058Z,16.50
2023-01-03T19:25:02.853Z,22.97
2023-01-03T19:27:37.041Z,23.50
2023-01-03T19:30:08.165Z,22.40
2023-01-03T19:32:38.517Z,22.50
2023-01-03T19:35:15.367Z,21.83
2023-01-03T19:37:45.366Z,21.50
2023-01-03T19:40:18.255Z,20.37
2023-01-03T19:42:55.053Z,19.70
2023-01-03T19:45:28.327Z,19.33
2023-01-03T19:47:57.823Z,18.97
2023-01-03T19:50:27.925Z,17.27
2023-01-03T19:52:58.228Z,13.87
2023-01-03T19:55:30.779Z,13.83
2023-01-03T19:58:00.924Z,12.00
2023-01-03T20:00:32.246Z,11.33
2023-01-03T20:03:04.041Z,10.90
2023-01-03T20:05:36.263Z,10.27
2023-01-03T20:08:12.161Z,11.57
2023-01-03T20:10:43.136Z,13.00
2023-01-03T20:13:17.434Z,14.57
2023-01-03T20:15:47.178Z,13.77
2023-01-03T20:18:28.430Z,16.20
2023-01-03T20:21:00.362Z,20.47
2023-01-03T20:23:33.966Z,21.67
2023-01-03T20:26:02.643Z,22.60
2023-01-03T20:28:31.188Z,20.50
2023-01-03T20:31:00.532Z,14.93
2023-01-03T20:33:29.654Z,12.10
2023-01-03T20:36:14.860Z,9.73
2023-01-03T20:38:51.383Z,7.00
2023-01-03T20:41:20.271Z,6.27
2023-01-03T20:43:50.315Z,6.60
2023-01-03T20:46:21.983Z,5.80
2023-01-03T20:48:59.661Z,6.23
2023-01-03T20:51:30.522Z,5.70
2023-01-03T20:54:00.561Z,5.23
2023-01-03T20:56:32.845Z,5.17
2023-01-03T20:59:01.641Z,4.33
2023-01-03T21:01:31.112Z,4.70
2023-01-03T21:03:59.924Z,5.13
2023-01-03T21:06:29.527Z,4.27
2023-01-03T21:08:59.308Z,4.60
2023-01-03T21:11:29.758Z,5.10
2023-01-03T21:13:59.688Z,5.17
2023-01-03T21:16:34.039Z,5.30
2023-01-03T21:19:04.727Z,5.20
2023-01-03T21:21:33.904Z,4.80
2023-01-03T21:24:06.917Z,5.30
2023-01-03T21:26:35.494Z,5.23
2023-01-03T21:29:04.283Z,5.37
2023-01-03T21:31:34.369Z,5.63
2023-01-03T21:34:03.040Z,5.17
2023-01-03T21:36:33.258Z,5.90
2023-01-03T21:39:03.748Z,7.00
2023-01-03T21:41:34.695Z,6.90
2023-01-03T21:44:05.228Z,7.60
2023-01-03T21:46:33.805Z,7.50
2023-01-03T21:49:02.104Z,7.17
2023-01-03T21:51:38.445Z,6.93
2023-01-03T21:54:09.565Z,6.90
2023-01-03T21:56:45.702Z,7.17
2023-01-03T21:59:15.037Z,8.87
2023-01-03T22:02:01.849Z,9.70
2023-01-03T22:04:30.785Z,7.37
2023-01-03T22:07:01.231Z,6.23
2023-01-03T22:09:50.186Z,6.23
2023-01-03T22:12:19.774Z,5.80
2023-01-03T22:14:48.689Z,5.10
2023-01-03T22:17:17.207Z,4.93
2023-01-03T22:19:45.793Z,5.47
2023-01-03T22:22:14.008Z,4.90
2023-01-03T22:24:43.832Z,4.90
2023-01-03T22:27:12.227Z,5.00
2023-01-03T22:29:40.609Z,6.10
2023-01-03T22:32:11.559Z,7.17
2023-01-03T22:34:40.286Z,7.07
2023-01-03T22:37:08.792Z,7.13
2023-01-03T22:39:40.053Z,6.53
2023-01-03T22:42:14.541Z,7.23
2023-01-03T22:44:45.952Z,7.40
2023-01-03T22:47:14.353Z,7.37
2023-01-03T22:49:42.708Z,7.53
2023-01-03T22:52:11.195Z,7.63
2023-01-03T22:54:39.545Z,6.73
2023-01-03T22:57:09.063Z,7.13
2023-01-03T22:59:37.700Z,7.17
2023-01-03T23:02:06.107Z,6.70
2023-01-03T23:04:37.775Z,6.83
2023-01-03T23:07:06.869Z,6.73
2023-01-03T23:09:35.168Z,6.53
2023-01-03T23:12:20.875Z,6.13
2023-01-03T23:14:50.719Z,6.20
2023-01-03T23:17:36.867Z,5.90
2023-01-03T23:20:08.613Z,6.20
2023-01-03T23:22:36.998Z,6.20
2023-01-03T23:25:06.124Z,5.80
2023-01-03T23:27:37.101Z,6.13
2023-01-03T23:30:08.516Z,6.70
2023-01-03T23:32:36.926Z,6.40
2023-01-03T23:35:06.438Z,7.57
2023-01-03T23:37:40.060Z,10.53
2023-01-03T23:40:11.351Z,13.47
2023-01-03T23:42:40.163Z,17.77
2023-01-03T23:45:11.764Z,17.67
2023-01-03T23:47:41.927Z,16.33
2023-01-03T23:50:10.547Z,19.73
2023-01-03T23:52:38.925Z,19.00
2023-01-03T23:55:12.606Z,20.50
2023-01-03T23:57:41.647Z,19.23
